Edinburg, Pennsylvania
Current Conditions -  °F | °C
As of 6:51 PM on Sunday 23 Nov 2014 (Local Time) from KYNG Reporting Station
Overcast Overcast  
Wind Chill: 55°   Ceiling: 15000
Heat Index: 55°   Visibility: 10mi
Dew Point: 44°   Wind: 16mph
Humidity: 67%   Direction: 120°ESE
Pressure: 29.69"   Gusts: NA
Location:  41.01°N, 80.44°W
Report Text: KYNG 232351Z 12014KT 10SM SCT120 OVC150 13/07 A2969 RMK AO2 PRESFR SLP058 T01280067 10144 20122 58044
Loading
Personal Weather Stations






























Interactive Weather Map New forecast layout! Learn more

10-Day Weather Forecast

Advertisements
Track Severe Weather on mobile